M I D A S
Marine Information and Data Acquisition System
Tripno 1666 of the Zeeleeuw from 2009-03-27 07:38:46 to 2009-03-27 11:29:19
Back to CruiseResearch ActivitiesStationsMapUnderway DataData graphs

EquipmentUnitsComment
TimeDGPSUTC
LatitudeDGPSDM.mWGS84
LongitudeDGPSDM.mWGS84
HeadingGyrodeg 
SOGDGPSknotsSpeed over ground
COGDGPSdegCourse over ground
DepthEcho soundermeters200 kHz
Missing or incorrect values are displayed as -999
Navigation data collected by the RV Zeeleeuw from 2009-03-27 07:39:53 to 2009-03-27 11:41:38
Time Latitude Longitude Heading SOG COG Depth
2009-03-27 07:41:02 51°13.681 2°55.888 109 3.6 290 -999
2009-03-27 07:42:02 51°13.693 2°55.801 90.8 2.9 274 -999
2009-03-27 07:43:00 51°13.697 2°55.767 61.8 0.9 30 10.4
2009-03-27 07:44:00 51°13.701 2°55.767 21.5 0.9 215 10.4
2009-03-27 07:45:01 51°13.71 2°55.757 343.8 2 333 -999
2009-03-27 07:45:59 51°13.761 2°55.702 327.1 6.3 325 9.2
2009-03-27 07:46:58 51°13.872 2°55.605 335.4 8.5 334 9.4
2009-03-27 07:48:00 51°14.014 2°55.501 337 9.3 336 9.5
2009-03-27 07:48:59 51°14.152 2°55.397 335.3 9.2 333 9.7
2009-03-27 07:49:58 51°14.271 2°55.25 317.3 9.3 315 9.8
2009-03-27 07:50:58 51°14.379 2°55.068 312.7 9.5 312 9.6
2009-03-27 07:51:58 51°14.43 2°54.854 271.3 9.2 265 9.7
2009-03-27 07:52:58 51°14.382 2°54.603 255 10.5 252 9.5
2009-03-27 07:53:58 51°14.314 2°54.32 250.4 11.8 246 8
2009-03-27 07:54:58 51°14.226 2°54.035 244.6 12.1 242 7.9
2009-03-27 07:55:58 51°14.135 2°53.753 246.3 12 242 8.4
2009-03-27 07:56:58 51°14.045 2°53.468 247.4 12.2 244 8.5
2009-03-27 07:57:58 51°13.953 2°53.181 245.2 12.3 242 8.7
2009-03-27 07:58:58 51°13.861 2°52.89 246 12.2 243 9.1
2009-03-27 07:59:58 51°13.768 2°52.603 246 12.1 242 9.1
2009-03-27 08:00:58 51°13.677 2°52.314 246.8 12.1 243 9.6
2009-03-27 08:01:58 51°13.589 2°52.021 247 12.4 245 9.7
2009-03-27 08:02:58 51°13.499 2°51.742 240.4 10.9 232 9.7
2009-03-27 08:03:58 51°13.376 2°51.576 224 7 227 10
2009-03-27 08:04:58 51°13.343 2°51.464 282.4 3.3 267 10
2009-03-27 08:05:58 51°13.346 2°51.425 333.1 0.4 281 10
2009-03-27 08:06:58 51°13.34 2°51.42 352.5 0.5 201 10.1
2009-03-27 08:07:58 51°13.33 2°51.417 5.3 0.7 194 9.9
2009-03-27 08:08:58 51°13.317 2°51.417 7.7 0.8 195 10
2009-03-27 08:09:58 51°13.302 2°51.417 10.3 0.9 181 9.8
2009-03-27 08:10:58 51°13.301 2°51.416 6 0.8 348 9.7
2009-03-27 08:11:58 51°13.319 2°51.406 353.6 1.4 329 9.9
2009-03-27 08:12:58 51°13.335 2°51.391 347.7 1.1 326 10.1
2009-03-27 08:13:58 51°13.347 2°51.374 343.5 0.9 319 10.1
2009-03-27 08:14:58 51°13.357 2°51.361 341.9 0.7 309 9.9
2009-03-27 08:15:58 51°13.367 2°51.345 339.5 1 312 10.6
2009-03-27 08:16:58 51°13.376 2°51.33 341.7 0.8 321 10.3
2009-03-27 08:17:58 51°13.386 2°51.313 340.6 1 320 10.4
2009-03-27 08:18:58 51°13.394 2°51.305 340.6 0.1 325 10.4
2009-03-27 08:19:58 51°13.389 2°51.303 352.8 0.4 150 10.6
2009-03-27 08:20:58 51°13.379 2°51.305 1.1 0.7 152 10.3
2009-03-27 08:21:58 51°13.366 2°51.306 8.5 0.7 191 10.5
2009-03-27 08:22:58 51°13.352 2°51.306 15.2 1 164 10.3
2009-03-27 08:23:58 51°13.34 2°51.307 17.8 0.7 184 10.4
2009-03-27 08:24:58 51°13.328 2°51.307 13.7 0.6 188 10.4
2009-03-27 08:25:58 51°13.318 2°51.307 9.7 0.6 197 10.2
2009-03-27 08:26:58 51°13.308 2°51.306 2.7 0.8 182 10
2009-03-27 08:27:58 51°13.298 2°51.306 359.5 0.7 171 10.2
2009-03-27 08:28:58 51°13.287 2°51.308 1.6 0.7 168 10.1
2009-03-27 08:29:58 51°13.274 2°51.309 3.6 0.8 170 10
2009-03-27 08:30:58 51°13.26 2°51.31 6.7 0.9 197 9.9
2009-03-27 08:31:58 51°13.245 2°51.309 9 0.9 194 9.9
2009-03-27 08:32:58 51°13.23 2°51.31 12 1 165 9.9
2009-03-27 08:33:58 51°13.216 2°51.31 11.6 0.7 192 9.8
2009-03-27 08:34:58 51°13.204 2°51.307 8.7 0.7 201 9.8
2009-03-27 08:35:58 51°13.192 2°51.306 4.1 0.8 170 9.7
2009-03-27 08:36:58 51°13.187 2°51.303 351.6 0.6 328 9.8
2009-03-27 08:37:58 51°13.204 2°51.273 315.8 2.1 297 10
2009-03-27 08:38:58 51°13.202 2°51.196 251.5 3.2 236 10
2009-03-27 08:39:58 51°13.166 2°51.15 221.5 2.9 205 9.8
2009-03-27 08:40:58 51°13.13 2°51.097 239 3.4 234 10.4
2009-03-27 08:41:58 51°13.094 2°51.021 239 3.7 231 10.1
2009-03-27 08:42:58 51°13.057 2°50.943 237.8 3.6 228 10
2009-03-27 08:43:58 51°13.019 2°50.868 236 3.6 229 9.9
2009-03-27 08:44:58 51°12.98 2°50.791 236 3.7 234 9.9
2009-03-27 08:45:58 51°12.942 2°50.721 235.2 3.2 228 10
2009-03-27 08:46:58 51°12.909 2°50.658 238.1 3.2 230 10
2009-03-27 08:47:58 51°12.876 2°50.596 235.2 2.9 229 9.3
2009-03-27 08:48:58 51°12.846 2°50.534 242.7 3 230 9.7
2009-03-27 08:49:58 51°12.817 2°50.472 238.6 2.8 230 9.6
2009-03-27 08:50:58 51°12.787 2°50.414 239.7 2.8 231 9.5
2009-03-27 08:51:58 51°12.759 2°50.354 242.2 2.9 233 9.6
2009-03-27 08:52:58 51°12.732 2°50.294 238 2.6 233 9.4
2009-03-27 08:53:58 51°12.702 2°50.238 239.6 2.9 229 9.7
2009-03-27 08:54:58 51°12.675 2°50.187 238.9 2.4 229 9.4
2009-03-27 08:55:58 51°12.647 2°50.135 242 2.8 235 9.7
2009-03-27 08:56:58 51°12.62 2°50.074 243.5 2.7 240 9.1
2009-03-27 08:57:58 51°12.593 2°50.014 241 2.6 233 9.1
2009-03-27 08:58:58 51°12.568 2°49.961 246.8 2.5 234 9.4
2009-03-27 08:59:58 51°12.546 2°49.906 247.5 2.5 235 9.3
2009-03-27 09:00:58 51°12.519 2°49.848 238.7 3 235 9.4
2009-03-27 09:01:58 51°12.484 2°49.789 234.4 3.1 227 9.2
2009-03-27 09:02:58 51°12.455 2°49.727 255 2.5 252 9
2009-03-27 09:03:58 51°12.45 2°49.663 282.8 2.8 278 9.4
2009-03-27 09:04:58 51°12.44 2°49.551 256.8 6.6 250 9.4
2009-03-27 09:05:58 51°12.383 2°49.32 249.8 11.4 248 9.5
2009-03-27 09:06:58 51°12.307 2°49.037 249 11.8 247 9.7
2009-03-27 09:07:58 51°12.231 2°48.749 249.5 11.5 247 10
2009-03-27 09:08:58 51°12.158 2°48.464 250.1 11.7 248 10
2009-03-27 09:09:58 51°12.085 2°48.171 251 12.1 248 10.4
2009-03-27 09:10:58 51°12.012 2°47.878 250.3 11.9 248 10.5
2009-03-27 09:11:58 51°11.938 2°47.584 250.3 12.1 249 10.7
2009-03-27 09:12:58 51°11.863 2°47.295 249.8 11.8 247 11
2009-03-27 09:13:58 51°11.787 2°47.005 250 11.8 248 10.9
2009-03-27 09:14:58 51°11.712 2°46.716 249.6 11.8 247 11.2
2009-03-27 09:15:58 51°11.638 2°46.427 250.8 11.9 248 11.7
2009-03-27 09:16:58 51°11.565 2°46.137 250.4 11.7 249 11.4
2009-03-27 09:17:58 51°11.492 2°45.847 250.5 11.8 248 11.4
2009-03-27 09:18:58 51°11.418 2°45.559 249.6 11.8 248 11.6
2009-03-27 09:19:58 51°11.344 2°45.267 250.1 11.9 249 11.5
2009-03-27 09:20:58 51°11.271 2°44.978 250.4 11.8 249 11.3
2009-03-27 09:21:59 51°11.196 2°44.685 250.3 11.8 248 11.4
2009-03-27 09:22:59 51°11.124 2°44.397 250.4 11.6 247 11.3
2009-03-27 09:23:58 51°11.053 2°44.113 250.9 11.9 248 11.2
2009-03-27 09:24:58 51°10.981 2°43.818 251.3 12 250 11.3
2009-03-27 09:25:58 51°10.908 2°43.526 250.4 11.9 249 11.2
2009-03-27 09:26:58 51°10.832 2°43.235 249.9 11.9 249 11.2
2009-03-27 09:27:58 51°10.759 2°42.945 250.7 11.8 248 11.1
2009-03-27 09:28:58 51°10.685 2°42.656 251 12.1 247 11.2
2009-03-27 09:29:58 51°10.612 2°42.366 250.2 11.6 248 10.9
2009-03-27 09:30:58 51°10.541 2°42.076 250.5 11.7 249 10.9
2009-03-27 09:31:59 51°10.459 2°41.789 243.2 11.7 242 10.9
2009-03-27 09:32:59 51°10.363 2°41.517 240.3 11.8 240 10.8
2009-03-27 09:33:58 51°10.267 2°41.253 241.1 11.8 243 10.5
2009-03-27 09:34:59 51°10.172 2°40.978 242.5 11.6 240 10.5
2009-03-27 09:35:58 51°10.079 2°40.714 241.6 11.7 240 10.5
2009-03-27 09:36:58 51°9.987 2°40.442 242.3 11.6 241 10.4
2009-03-27 09:37:58 51°9.892 2°40.172 242.2 11.7 241 10.2
2009-03-27 09:38:58 51°9.797 2°39.9 242.1 11.8 241 10.3
2009-03-27 09:39:58 51°9.703 2°39.632 242.1 11.4 243 10
2009-03-27 09:40:58 51°9.616 2°39.359 244.5 11.6 241 10
2009-03-27 09:41:58 51°9.537 2°39.081 249 11.6 248 10.2
2009-03-27 09:42:59 51°9.465 2°38.792 249.7 11.6 248 10.2
2009-03-27 09:43:58 51°9.396 2°38.515 250.5 11.3 246 10.4
2009-03-27 09:44:58 51°9.327 2°38.235 251.8 11.6 251 10.5
2009-03-27 09:45:59 51°9.263 2°37.953 250.7 9.8 250 10.3
2009-03-27 09:46:58 51°9.211 2°37.739 251.1 8.6 249 10.5
2009-03-27 09:47:58 51°9.171 2°37.53 263.6 8.3 263 10.5
2009-03-27 09:48:58 51°9.148 2°37.324 250 6.8 245 10.6
2009-03-27 09:49:58 51°9.136 2°37.224 295.8 1.9 295 11
2009-03-27 09:50:58 51°9.149 2°37.213 333.2 0.6 23 10.9
2009-03-27 09:51:58 51°9.156 2°37.225 340.2 0.5 84 10.9
2009-03-27 09:52:58 51°9.155 2°37.244 353 0.5 108 11.2
2009-03-27 09:53:58 51°9.152 2°37.263 0.7 0.7 105 11
2009-03-27 09:54:58 51°9.147 2°37.282 5.1 0.8 115 10.9
2009-03-27 09:55:58 51°9.142 2°37.302 9.8 0.9 100 10.6
2009-03-27 09:56:58 51°9.156 2°37.322 4.1 1.5 18 10.6
2009-03-27 09:57:58 51°9.184 2°37.334 352.2 1.8 5 10.7
2009-03-27 09:58:58 51°9.213 2°37.335 343.6 1.8 358 11.5
2009-03-27 09:59:58 51°9.243 2°37.329 334.3 1.8 349 11.9
2009-03-27 10:00:58 51°9.267 2°37.325 330 1 353 12.1
2009-03-27 10:01:58 51°9.28 2°37.33 333.2 0.7 51 12
2009-03-27 10:02:58 51°9.282 2°37.349 345.1 0.7 85 12.5
2009-03-27 10:03:58 51°9.281 2°37.375 354.2 1.2 93 11.9
2009-03-27 10:04:58 51°9.276 2°37.4 2.3 1.1 110 12.1
2009-03-27 10:05:58 51°9.269 2°37.425 8.5 0.8 121 11.8
2009-03-27 10:06:58 51°9.262 2°37.45 11.9 0.9 114 11.7
2009-03-27 10:07:58 51°9.258 2°37.475 7.9 1.1 101 11.6
2009-03-27 10:08:58 51°9.253 2°37.502 2.8 1 99 11.8
2009-03-27 10:09:58 51°9.25 2°37.53 3.7 1.1 98 11.5
2009-03-27 10:10:58 51°9.246 2°37.56 1.6 1 101 11.5
2009-03-27 10:11:58 51°9.242 2°37.589 2.1 1.2 103 11.7
2009-03-27 10:12:58 51°9.237 2°37.62 5.1 1 110 11.5
2009-03-27 10:13:58 51°9.232 2°37.653 6.4 1.4 99 11.5
2009-03-27 10:14:58 51°9.228 2°37.685 6.3 1.2 105 11.4
2009-03-27 10:15:58 51°9.223 2°37.718 9.6 1.5 105 11.4
2009-03-27 10:16:58 51°9.224 2°37.753 10 2.2 41 11.5
2009-03-27 10:17:58 51°9.272 2°37.811 47.4 4.6 59 11.6
2009-03-27 10:18:58 51°9.276 2°37.928 102.7 4 102 11.6
2009-03-27 10:19:58 51°9.258 2°38.019 120.3 3.3 112 11.3
2009-03-27 10:20:58 51°9.237 2°38.094 129.7 2.9 115 11.1
2009-03-27 10:21:58 51°9.218 2°38.167 123.7 3.1 110 10.9
2009-03-27 10:22:58 51°9.202 2°38.249 114.8 3.4 102 10.7
2009-03-27 10:23:58 51°9.193 2°38.343 97.7 3.7 94 10.5
2009-03-27 10:24:58 51°9.196 2°38.442 77.7 3.8 80 10.6
2009-03-27 10:25:58 51°9.213 2°38.537 61.5 3.6 66 10.4
2009-03-27 10:26:58 51°9.24 2°38.618 46.5 3.4 57 10.6
2009-03-27 10:27:58 51°9.272 2°38.691 35.5 3.3 51 10.8
2009-03-27 10:28:58 51°9.308 2°38.758 30.5 3.4 49 10.9
2009-03-27 10:29:58 51°9.346 2°38.823 29.8 3.3 48 10.8
2009-03-27 10:30:58 51°9.382 2°38.892 36.1 3.4 51 11.1
2009-03-27 10:31:58 51°9.418 2°38.976 48.7 4.1 62 10.9
2009-03-27 10:32:58 51°9.446 2°39.078 66 4.3 71 11.4
2009-03-27 10:33:58 51°9.473 2°39.183 56.1 4.2 59 11.1
2009-03-27 10:34:58 51°9.511 2°39.275 38.2 4 53 11.4
2009-03-27 10:35:58 51°9.555 2°39.349 26.8 3.8 42 11.4
2009-03-27 10:36:58 51°9.6 2°39.413 24.8 3.8 42 11.6
2009-03-27 10:37:58 51°9.642 2°39.49 46.3 4.1 59 11.8
2009-03-27 10:38:59 51°9.666 2°39.591 67.8 4 73 11.5
2009-03-27 10:39:59 51°9.689 2°39.689 62 4 66 11.7
2009-03-27 10:40:59 51°9.72 2°39.784 49.7 4 57 11.4
2009-03-27 10:41:59 51°9.755 2°39.864 31.6 3.6 52 11.9
2009-03-27 10:42:59 51°9.794 2°39.926 15.6 3.9 40 11.8
2009-03-27 10:43:59 51°9.869 2°40.044 56.3 8.3 60 12.3
2009-03-27 10:44:59 51°9.957 2°40.26 56 10.8 52 12.2
2009-03-27 10:45:59 51°10.063 2°40.527 57.5 12.7 61 12.4
2009-03-27 10:46:59 51°10.168 2°40.825 66.3 13 65 12.6
2009-03-27 10:47:59 51°10.259 2°41.143 67.6 13.5 67 12.5
2009-03-27 10:48:59 51°10.34 2°41.464 66 12.9 69 12.6
2009-03-27 10:49:59 51°10.429 2°41.781 66.1 13 68 12.6
2009-03-27 10:50:59 51°10.521 2°42.095 66.1 13.1 62 12.7
2009-03-27 10:51:59 51°10.61 2°42.409 63.2 12.9 69 12.8
2009-03-27 10:52:59 51°10.696 2°42.729 67.3 13.1 71 13
2009-03-27 10:53:59 51°10.785 2°43.049 68 13.4 70 13.1
2009-03-27 10:54:59 51°10.876 2°43.368 68.3 13.6 62 13.1
2009-03-27 10:55:59 51°10.965 2°43.686 62 13.1 68 13.4
2009-03-27 10:56:59 51°11.057 2°44.008 67.3 13.4 63 13.6
2009-03-27 10:57:59 51°11.144 2°44.33 64.5 13.5 60 13.6
2009-03-27 10:59:00 51°11.236 2°44.66 64 12.9 71 -999
2009-03-27 10:59:59 51°11.329 2°44.972 63.1 13.2 58 14.2
2009-03-27 11:00:59 51°11.422 2°45.293 67.5 13.6 68 14.4
2009-03-27 11:01:59 51°11.518 2°45.611 66.1 13.1 70 14.5
2009-03-27 11:02:59 51°11.615 2°45.931 65.4 13.6 67 14.6
2009-03-27 11:03:59 51°11.709 2°46.256 69 13.8 63 14.7
2009-03-27 11:04:59 51°11.802 2°46.575 66.7 13.7 66 14.8
2009-03-27 11:05:59 51°11.891 2°46.902 70.5 13.9 70 14.6
2009-03-27 11:06:59 51°11.985 2°47.226 66.1 13.3 72 14.7
2009-03-27 11:07:59 51°12.078 2°47.552 67.1 13.3 72 14.6
2009-03-27 11:08:59 51°12.171 2°47.882 66.5 13.8 67 14.4
2009-03-27 11:09:59 51°12.27 2°48.209 68.1 14.1 63 14.3
2009-03-27 11:10:59 51°12.372 2°48.531 67.5 13.7 66 14.3
2009-03-27 11:11:59 51°12.47 2°48.86 65.4 13.6 70 14
2009-03-27 11:12:59 51°12.569 2°49.187 68.2 14.2 63 14
2009-03-27 11:13:59 51°12.667 2°49.518 67.8 13.8 63 13.8
2009-03-27 11:14:59 51°12.768 2°49.845 65.7 13.9 60 13.5
2009-03-27 11:15:59 51°12.867 2°50.173 62 13.8 66 13.4
2009-03-27 11:16:59 51°12.993 2°50.481 53.1 14.2 52 13.3
2009-03-27 11:17:59 51°13.13 2°50.78 55.6 14.1 57 13.5
2009-03-27 11:18:59 51°13.261 2°51.085 57.5 13.8 55 13.6
2009-03-27 11:19:59 51°13.392 2°51.39 56 13.9 55 13.6
2009-03-27 11:20:59 51°13.52 2°51.7 61.8 14.5 57 13.2
2009-03-27 11:21:59 51°13.647 2°52.01 57 14.3 55 13.3
2009-03-27 11:22:59 51°13.779 2°52.319 56.4 14.1 56 13.4
2009-03-27 11:23:59 51°13.91 2°52.628 56 13.9 58 13.3
2009-03-27 11:24:59 51°14.04 2°52.937 55.3 14.1 55 13.2
2009-03-27 11:25:59 51°14.168 2°53.253 64 14.4 56 12.9
2009-03-27 11:26:59 51°14.287 2°53.576 61.9 14.2 57 12.4
2009-03-27 11:27:59 51°14.396 2°53.9 63.6 13.6 59 12.6
2009-03-27 11:28:59 51°14.484 2°54.24 78 14 74 13.3
2009-03-27 11:29:59 51°14.49 2°54.599 105.3 13.4 100 13.3
2009-03-27 11:30:59 51°14.417 2°54.926 122.2 12.8 115 13.3
2009-03-27 11:31:59 51°14.302 2°55.19 134.1 11.3 133 13.5
2009-03-27 11:32:59 51°14.192 2°55.346 148.2 6.9 144 13.8
2009-03-27 11:33:59 51°14.101 2°55.425 155.1 6.3 153 13.6
2009-03-27 11:34:59 51°13.998 2°55.506 156.6 7.4 156 13.6
2009-03-27 11:36:00 51°13.881 2°55.593 156.2 7.7 156 13.4
2009-03-27 11:36:59 51°13.775 2°55.686 144.7 7 141 13
2009-03-27 11:37:59 51°13.707 2°55.807 129.1 5.3 127 13
2009-03-27 11:39:03 51°13.671 2°55.915 104.6 3.3 106 -999
2009-03-27 11:40:03 51°13.664 2°55.955 120.9 0.5 113 -999
2009-03-27 11:41:03 51°13.663 2°55.96 126.9 0.1 268 -999